Time;durP1;ratioP1;P1;durP2;ratioP2;P2;SDS_P1;SDS_P2;PMS_P1;PMS_P2;Temp;Humidity;BMP_temperature;BMP_pressure;BME280_temperature;BME280_humidity;BME280_pressure;Samples;Min_cycle;Max_cycle;Signal;HPM_P1;HPM_P2
2022/10/27 00:00:26;;;;;;;7.03;2.55;;;13.70;99.90;;;;;;4996973;28;20030;-72
2022/10/27 00:02:52;;;;;;;7.65;2.80;;;13.70;99.90;;;;;;4992144;28;20038;-72
2022/10/27 00:05:17;;;;;;;8.25;3.22;;;13.60;99.90;;;;;;5003766;28;20018;-72
2022/10/27 00:07:43;;;;;;;6.03;2.88;;;13.60;99.90;;;;;;4997357;28;20065;-72
2022/10/27 00:10:09;;;;;;;7.75;2.15;;;13.70;99.90;;;;;;4993410;28;20077;-72
2022/10/27 00:12:34;;;;;;;7.45;2.97;;;13.80;99.90;;;;;;4999563;28;20044;-72
2022/10/27 00:15:01;;;;;;;4.85;3.08;;;13.60;99.90;;;;;;5002680;28;20026;-72
2022/10/27 00:17:30;;;;;;;6.78;2.70;;;13.40;99.90;;;;;;5000569;28;20051;-72
2022/10/27 00:19:55;;;;;;;6.53;3.05;;;13.40;99.90;;;;;;5000436;28;20060;-72
2022/10/27 00:22:21;;;;;;;7.13;2.67;;;13.60;99.90;;;;;;4995108;28;20046;-72
2022/10/27 00:24:47;;;;;;;6.75;2.72;;;13.60;99.90;;;;;;4998583;28;20037;-72
2022/10/27 00:27:13;;;;;;;7.25;2.70;;;13.80;99.90;;;;;;4999693;28;20057;-72
2022/10/27 00:29:38;;;;;;;6.15;3.15;;;13.60;99.90;;;;;;4999270;28;20026;-72
2022/10/27 00:32:04;;;;;;;5.80;2.35;;;13.90;99.90;;;;;;5001326;28;20069;-72
2022/10/27 00:34:30;;;;;;;7.28;2.45;;;13.70;99.90;;;;;;4999575;28;20026;-72
2022/10/27 00:36:56;;;;;;;6.55;2.30;;;13.70;99.90;;;;;;4999880;28;20651;-72
2022/10/27 00:39:21;;;;;;;7.38;2.75;;;13.60;99.90;;;;;;5000612;28;20045;-72
2022/10/27 00:41:48;;;;;;;10.52;3.20;;;13.80;99.90;;;;;;5004070;28;20061;-72
2022/10/27 00:44:32;;;;;;;6.22;3.00;;;14.00;99.90;;;;;;4994750;28;21143;-71
2022/10/27 00:47:04;;;;;;;6.47;2.43;;;13.60;99.90;;;;;;4998541;28;20134;-72
2022/10/27 00:49:42;;;;;;;8.48;3.10;;;13.60;99.90;;;;;;4998973;28;20488;-72
2022/10/27 00:52:42;;;;;;;7.38;2.30;;;13.70;99.90;;;;;;4994704;28;20031;-72
2022/10/27 00:55:18;;;;;;;4.78;2.40;;;13.60;99.90;;;;;;4999751;28;20042;-72
2022/10/27 00:57:48;;;;;;;5.38;2.67;;;13.50;99.90;;;;;;4992129;28;20528;-72
2022/10/27 01:00:14;;;;;;;4.60;2.50;;;13.40;99.90;;;;;;4995314;28;20050;-73
2022/10/27 01:02:40;;;;;;;5.22;2.55;;;13.60;99.90;;;;;;5001919;28;20057;-73
2022/10/27 01:05:19;;;;;;;4.95;2.30;;;13.50;99.90;;;;;;4997446;28;20497;-72
2022/10/27 01:07:54;;;;;;;7.13;2.50;;;13.40;99.90;;;;;;5000515;28;20034;-73
2022/10/27 01:10:21;;;;;;;6.28;3.10;;;13.20;99.90;;;;;;4999457;28;20035;-73
2022/10/27 01:12:47;;;;;;;7.28;2.78;;;13.10;99.90;;;;;;4998944;28;20117;-72
2022/10/27 01:15:13;;;;;;;9.07;2.53;;;13.00;99.90;;;;;;4998624;28;20448;-72
2022/10/27 01:17:52;;;;;;;8.32;2.70;;;13.00;99.90;;;;;;4992233;28;20050;-72
2022/10/27 01:20:53;;;;;;;7.60;2.70;;;13.00;99.90;;;;;;4991418;28;20042;-72
2022/10/27 01:24:25;;;;;;;7.75;2.30;;;13.20;99.90;;;;;;4996834;28;20046;-72
2022/10/27 01:26:57;;;;;;;9.05;2.33;;;13.10;99.90;;;;;;5010902;28;20120;-72
2022/10/27 01:29:56;;;;;;;5.90;2.58;;;12.90;99.90;;;;;;4999040;28;20058;-72
2022/10/27 01:32:42;;;;;;;7.40;2.55;;;12.90;99.90;;;;;;5000166;28;20112;-72
2022/10/27 01:35:38;;;;;;;9.95;2.90;;;12.90;99.90;;;;;;4992556;28;20039;-72
2022/10/27 01:38:28;;;;;;;5.18;2.65;;;12.80;99.90;;;;;;4999381;28;20044;-73
2022/10/27 01:41:15;;;;;;;8.85;2.75;;;12.70;99.90;;;;;;5001949;28;20388;-72
2022/10/27 01:43:43;;;;;;;9.60;3.10;;;12.60;99.90;;;;;;4997917;28;20037;-72
2022/10/27 01:46:10;;;;;;;7.38;2.33;;;12.70;99.90;;;;;;5000039;28;20107;-73
2022/10/27 01:48:37;;;;;;;9.05;3.03;;;12.80;99.90;;;;;;4998403;28;20476;-72
2022/10/27 01:51:05;;;;;;;8.63;2.85;;;12.70;99.90;;;;;;4997581;28;20530;-72
2022/10/27 01:53:35;;;;;;;6.63;3.30;;;12.90;99.90;;;;;;4995324;28;20026;-72
2022/10/27 01:56:03;;;;;;;6.05;2.60;;;13.00;99.90;;;;;;4996114;28;20038;-72
2022/10/27 01:58:53;;;;;;;9.25;2.95;;;13.20;99.90;;;;;;4998956;28;20477;-72
2022/10/27 02:02:00;;;;;;;7.40;3.40;;;13.40;99.90;;;;;;5002731;28;20061;-72
2022/10/27 02:04:36;;;;;;;8.43;2.83;;;13.60;99.90;;;;;;5023090;28;20041;-72
2022/10/27 02:07:12;;;;;;;6.40;2.55;;;13.50;99.90;;;;;;4999042;28;20503;-73
2022/10/27 02:09:49;;;;;;;9.90;3.40;;;13.60;99.90;;;;;;4996524;28;20064;-72
2022/10/27 02:12:25;;;;;;;8.60;3.17;;;13.40;99.90;;;;;;5000148;28;20113;-72
2022/10/27 02:14:53;;;;;;;5.50;2.33;;;13.30;99.90;;;;;;4990097;28;20026;-72
2022/10/27 02:17:23;;;;;;;7.00;2.63;;;13.20;99.90;;;;;;4998940;28;20148;-73
2022/10/27 02:19:53;;;;;;;6.68;2.47;;;12.90;99.90;;;;;;4996193;28;20034;-73
2022/10/27 02:22:19;;;;;;;6.38;2.58;;;12.90;99.90;;;;;;4997066;28;20042;-72
2022/10/27 02:24:45;;;;;;;8.25;3.13;;;12.70;99.90;;;;;;4994599;28;20038;-72
2022/10/27 02:27:14;;;;;;;6.22;2.85;;;12.70;99.90;;;;;;5002686;28;20362;-72
2022/10/27 02:29:46;;;;;;;5.93;2.67;;;13.20;99.90;;;;;;4995116;28;20488;-72
2022/10/27 02:32:17;;;;;;;11.25;2.28;;;13.40;99.90;;;;;;4991163;28;20037;-72
2022/10/27 02:34:43;;;;;;;10.52;2.75;;;13.40;99.90;;;;;;5004331;28;20037;-73
2022/10/27 02:37:15;;;;;;;4.82;2.80;;;13.50;99.90;;;;;;4995996;28;20042;-73
2022/10/27 02:39:40;;;;;;;6.68;2.72;;;13.40;99.90;;;;;;4995531;28;20431;-72
2022/10/27 02:42:06;;;;;;;4.50;2.60;;;13.40;99.90;;;;;;4996800;28;20084;-72
2022/10/27 02:44:32;;;;;;;5.28;2.60;;;13.20;99.90;;;;;;4997561;28;20026;-72
2022/10/27 02:46:57;;;;;;;5.70;2.50;;;13.10;99.90;;;;;;4991675;28;20038;-73
2022/10/27 02:49:23;;;;;;;4.60;2.33;;;13.10;99.90;;;;;;4996285;28;20042;-72
2022/10/27 02:51:48;;;;;;;6.72;2.15;;;13.10;99.90;;;;;;5004535;28;20040;-72
2022/10/27 02:54:14;;;;;;;6.45;2.80;;;13.10;99.90;;;;;;4996933;28;20030;-72
2022/10/27 02:56:40;;;;;;;8.15;2.33;;;13.00;99.90;;;;;;4994842;28;20018;-72
2022/10/27 02:59:05;;;;;;;5.45;2.50;;;12.70;99.90;;;;;;5001809;28;20357;-72
2022/10/27 03:01:31;;;;;;;9.35;2.40;;;12.70;99.90;;;;;;5000016;28;20457;-70
2022/10/27 03:03:56;;;;;;;5.80;2.55;;;12.60;99.90;;;;;;4995052;28;20054;-71
2022/10/27 03:06:22;;;;;;;5.53;2.00;;;12.50;99.90;;;;;;4986944;28;20065;-72
2022/10/27 03:08:48;;;;;;;7.50;2.35;;;12.40;99.90;;;;;;4996567;28;20037;-71
2022/10/27 03:11:13;;;;;;;5.68;2.30;;;12.40;99.90;;;;;;4990208;28;20503;-71
2022/10/27 03:13:39;;;;;;;4.13;1.98;;;12.40;99.90;;;;;;4992434;28;20042;-71
2022/10/27 03:16:05;;;;;;;7.47;2.92;;;12.20;99.90;;;;;;4990262;28;20369;-71
2022/10/27 03:18:31;;;;;;;7.60;2.90;;;12.20;99.90;;;;;;4988390;28;20143;-71
2022/10/27 03:20:57;;;;;;;8.30;2.55;;;12.20;99.90;;;;;;4987487;28;20551;-71
2022/10/27 03:23:23;;;;;;;6.70;3.03;;;12.30;99.90;;;;;;4992924;28;20614;-71
2022/10/27 03:25:49;;;;;;;5.93;2.17;;;12.20;99.90;;;;;;4995759;28;20084;-70
2022/10/27 03:28:15;;;;;;;5.68;3.17;;;12.10;99.90;;;;;;4991268;28;20050;-71
2022/10/27 03:30:40;;;;;;;5.93;2.25;;;12.00;99.90;;;;;;4990710;28;20392;-71
2022/10/27 03:33:06;;;;;;;4.35;2.80;;;12.10;99.90;;;;;;4987817;28;20045;-72
2022/10/27 03:35:32;;;;;;;6.53;3.15;;;12.40;99.90;;;;;;5000938;28;20038;-71
2022/10/27 03:37:59;;;;;;;4.70;2.28;;;12.70;99.90;;;;;;4992038;28;20046;-70
2022/10/27 03:40:25;;;;;;;4.70;2.55;;;12.80;99.90;;;;;;4990682;28;20173;-70
2022/10/27 03:42:56;;;;;;;5.07;2.33;;;12.70;99.90;;;;;;4985410;28;20049;-70
2022/10/27 03:45:22;;;;;;;4.40;2.10;;;12.70;99.90;;;;;;4992409;28;20049;-70
2022/10/27 03:47:48;;;;;;;6.43;2.10;;;12.80;99.90;;;;;;4993418;28;20041;-70
2022/10/27 03:50:13;;;;;;;9.07;3.40;;;12.90;99.90;;;;;;4990443;28;20420;-70
2022/10/27 03:52:40;;;;;;;5.10;2.05;;;12.90;99.90;;;;;;4992355;28;20040;-70
2022/10/27 03:55:06;;;;;;;6.50;2.25;;;12.90;99.90;;;;;;4994258;28;20109;-71
2022/10/27 03:57:32;;;;;;;5.15;2.50;;;13.10;99.90;;;;;;4996265;28;20038;-70
2022/10/27 03:59:58;;;;;;;6.00;2.03;;;12.80;99.90;;;;;;4981722;28;20050;-71
2022/10/27 04:02:23;;;;;;;10.27;2.83;;;12.70;99.90;;;;;;4983244;28;20027;-70
2022/10/27 04:04:49;;;;;;;6.30;2.55;;;12.70;99.90;;;;;;4987990;28;20034;-70
2022/10/27 04:07:14;;;;;;;7.28;2.22;;;12.40;99.90;;;;;;4986415;28;20030;-70
2022/10/27 04:09:40;;;;;;;5.35;1.95;;;12.30;99.90;;;;;;4984861;28;20026;-71
2022/10/27 04:12:06;;;;;;;7.50;2.80;;;12.30;99.90;;;;;;4983207;28;20041;-70
2022/10/27 04:14:32;;;;;;;4.03;2.17;;;12.30;99.90;;;;;;4983525;28;20030;-70
2022/10/27 04:16:57;;;;;;;6.15;2.85;;;12.10;99.90;;;;;;4990694;28;20052;-70
2022/10/27 04:19:23;;;;;;;8.20;2.53;;;12.20;99.90;;;;;;4995148;28;20038;-72
2022/10/27 04:21:48;;;;;;;4.63;2.08;;;12.10;99.90;;;;;;4988499;28;20461;-71
2022/10/27 04:24:14;;;;;;;7.95;2.67;;;11.80;99.90;;;;;;4990779;28;20030;-71
2022/10/27 04:26:40;;;;;;;7.00;2.75;;;11.80;99.90;;;;;;4990949;28;20025;-71
2022/10/27 04:29:05;;;;;;;8.57;2.85;;;11.90;99.90;;;;;;4986979;28;20587;-71
2022/10/27 04:31:31;;;;;;;7.15;2.20;;;11.80;99.90;;;;;;4981256;28;20065;-71
2022/10/27 04:33:58;;;;;;;7.10;2.38;;;11.80;99.90;;;;;;4993366;28;20045;-72
2022/10/27 04:36:23;;;;;;;4.85;2.30;;;11.80;99.90;;;;;;4990975;28;20607;-71
2022/10/27 04:38:50;;;;;;;9.85;2.78;;;11.90;99.90;;;;;;4988925;28;20045;-71
2022/10/27 04:41:16;;;;;;;9.52;2.78;;;11.90;99.90;;;;;;4989146;28;20030;-71
2022/10/27 04:43:41;;;;;;;5.68;2.50;;;11.90;99.90;;;;;;4993445;28;20033;-71
2022/10/27 04:46:07;;;;;;;7.20;2.65;;;12.00;99.90;;;;;;4988643;28;20034;-71
2022/10/27 04:48:33;;;;;;;7.20;2.40;;;12.00;99.90;;;;;;4991695;28;20192;-71
2022/10/27 04:50:58;;;;;;;5.70;2.80;;;12.10;99.90;;;;;;4983416;28;20026;-71
2022/10/27 04:53:24;;;;;;;8.65;2.88;;;12.00;99.90;;;;;;4996030;28;20905;-70
2022/10/27 04:55:51;;;;;;;15.48;2.97;;;12.10;99.90;;;;;;4994901;28;20439;-70
2022/10/27 04:58:17;;;;;;;7.13;2.22;;;12.10;99.90;;;;;;4991292;28;20087;-71
2022/10/27 05:00:43;;;;;;;8.50;2.22;;;12.00;99.90;;;;;;4993968;28;20038;-71
2022/10/27 05:03:08;;;;;;;7.65;2.90;;;11.90;99.90;;;;;;4992598;28;20029;-70
2022/10/27 05:05:34;;;;;;;6.72;3.33;;;11.80;99.90;;;;;;4993160;28;20121;-71
2022/10/27 05:08:02;;;;;;;6.43;2.55;;;11.90;99.90;;;;;;4991844;28;20045;-71
2022/10/27 05:10:29;;;;;;;8.23;2.83;;;12.00;99.90;;;;;;4984220;28;20084;-71
2022/10/27 05:12:55;;;;;;;7.75;2.22;;;11.80;99.90;;;;;;4991844;28;20068;-71
2022/10/27 05:15:21;;;;;;;7.10;2.30;;;11.80;99.90;;;;;;4991349;28;20034;-70
2022/10/27 05:17:47;;;;;;;5.13;2.55;;;11.60;99.90;;;;;;5003226;28;20500;-70
2022/10/27 05:20:13;;;;;;;4.97;2.17;;;11.50;99.90;;;;;;4996033;28;20034;-70
2022/10/27 05:22:39;;;;;;;10.90;2.22;;;11.50;99.90;;;;;;4998087;28;20034;-70
2022/10/27 05:25:06;;;;;;;21.25;11.52;;;11.60;99.90;;;;;;4998248;28;20041;-71
2022/10/27 05:27:32;;;;;;;9.20;3.80;;;11.70;99.90;;;;;;4992813;28;20420;-71
2022/10/27 05:29:58;;;;;;;12.20;3.33;;;11.70;99.90;;;;;;4993068;28;20030;-71
2022/10/27 05:32:24;;;;;;;6.80;2.20;;;11.70;99.90;;;;;;4990770;28;20111;-70
2022/10/27 05:34:49;;;;;;;4.45;2.13;;;11.60;99.90;;;;;;4994564;28;20026;-70
2022/10/27 05:37:15;;;;;;;7.63;2.15;;;11.40;99.90;;;;;;4996743;28;20046;-70
2022/10/27 05:39:41;;;;;;;5.93;2.40;;;11.50;99.90;;;;;;4991297;28;20023;-70
2022/10/27 05:42:06;;;;;;;6.88;2.58;;;11.40;99.90;;;;;;4992776;28;20410;-70
2022/10/27 05:44:32;;;;;;;6.88;2.40;;;11.60;99.90;;;;;;4996836;28;20026;-70
2022/10/27 05:46:58;;;;;;;7.68;2.22;;;11.70;99.90;;;;;;4990845;28;20095;-70
2022/10/27 05:49:23;;;;;;;4.85;2.10;;;11.70;99.90;;;;;;4987859;28;20537;-70
2022/10/27 05:51:50;;;;;;;5.70;3.05;;;11.60;99.90;;;;;;4994220;28;20053;-70
2022/10/27 05:54:16;;;;;;;6.57;2.33;;;11.60;99.90;;;;;;4994051;28;20057;-70
2022/10/27 05:56:41;;;;;;;5.72;2.63;;;11.80;99.90;;;;;;4993585;28;20106;-71
2022/10/27 05:59:08;;;;;;;6.93;2.30;;;11.90;99.90;;;;;;5001901;28;20591;-70
2022/10/27 06:01:33;;;;;;;5.40;1.90;;;12.00;99.90;;;;;;4997165;28;20037;-70
2022/10/27 06:03:59;;;;;;;5.78;2.17;;;12.20;99.90;;;;;;4990265;28;20030;-71
2022/10/27 06:06:25;;;;;;;6.30;2.33;;;12.30;99.90;;;;;;4999123;28;20064;-70
2022/10/27 06:08:50;;;;;;;9.95;2.40;;;12.60;99.90;;;;;;4992470;28;20048;-70
2022/10/27 06:11:16;;;;;;;5.68;2.33;;;12.60;99.90;;;;;;4994492;28;20176;-70
2022/10/27 06:13:41;;;;;;;4.72;2.03;;;12.50;99.90;;;;;;4993409;28;20030;-71
2022/10/27 06:16:07;;;;;;;10.30;2.60;;;12.60;99.90;;;;;;4993930;28;20022;-70
2022/10/27 06:18:33;;;;;;;7.70;2.20;;;12.50;99.90;;;;;;4992772;28;20057;-70
2022/10/27 06:20:58;;;;;;;9.60;2.25;;;12.50;99.90;;;;;;4996267;28;20025;-71
2022/10/27 06:23:24;;;;;;;6.63;2.38;;;12.50;99.90;;;;;;4999221;28;20042;-70
2022/10/27 06:25:50;;;;;;;5.05;2.50;;;12.40;99.90;;;;;;4997633;28;20038;-70
2022/10/27 06:28:15;;;;;;;6.68;2.13;;;12.20;99.90;;;;;;4991125;28;20085;-70
2022/10/27 06:30:43;;;;;;;6.20;2.38;;;12.00;99.90;;;;;;4994256;28;20093;-71
2022/10/27 06:33:08;;;;;;;8.38;2.40;;;12.20;99.90;;;;;;4995780;28;20038;-70
2022/10/27 06:35:34;;;;;;;6.03;2.33;;;12.20;99.90;;;;;;5003388;28;20282;-71
2022/10/27 06:38:00;;;;;;;7.00;2.08;;;12.30;99.90;;;;;;4991419;28;20117;-71
2022/10/27 06:40:25;;;;;;;9.23;2.85;;;12.20;99.90;;;;;;4992819;28;20033;-70
2022/10/27 06:42:52;;;;;;;6.25;2.30;;;12.30;99.90;;;;;;4994077;28;20034;-70
2022/10/27 06:45:18;;;;;;;9.30;1.67;;;12.40;99.90;;;;;;4999924;28;20038;-71
2022/10/27 06:47:44;;;;;;;9.57;2.35;;;12.50;99.90;;;;;;4993267;28;20136;-70
2022/10/27 06:50:10;;;;;;;9.10;2.10;;;12.40;99.90;;;;;;4992807;28;20034;-70
2022/10/27 06:52:37;;;;;;;4.28;2.05;;;12.30;99.90;;;;;;4993735;28;20035;-70
2022/10/27 06:55:03;;;;;;;11.10;2.92;;;12.20;99.90;;;;;;4992614;28;20365;-71
2022/10/27 06:57:29;;;;;;;5.22;2.63;;;12.10;99.90;;;;;;4996372;28;20035;-70
2022/10/27 06:59:55;;;;;;;5.75;2.50;;;12.10;99.90;;;;;;4994285;28;20053;-70
2022/10/27 07:02:21;;;;;;;7.82;2.65;;;12.10;99.90;;;;;;4986540;28;20025;-71
2022/10/27 07:04:47;;;;;;;5.43;2.13;;;12.20;99.90;;;;;;4986761;28;20049;-71
2022/10/27 07:07:13;;;;;;;6.10;2.15;;;12.20;99.90;;;;;;4999799;28;20372;-71
2022/10/27 07:09:39;;;;;;;5.93;1.83;;;12.20;99.90;;;;;;4996509;28;20538;-70
2022/10/27 07:12:05;;;;;;;13.93;2.92;;;12.20;99.90;;;;;;4989826;28;20034;-71
2022/10/27 07:14:30;;;;;;;4.78;1.92;;;12.30;99.90;;;;;;4984261;28;20035;-71
2022/10/27 07:16:58;;;;;;;5.40;2.30;;;12.30;99.90;;;;;;4988245;28;20125;-71
2022/10/27 07:19:24;;;;;;;6.10;2.25;;;12.50;99.90;;;;;;4982651;28;20991;-71
2022/10/27 07:21:49;;;;;;;7.78;2.38;;;12.50;99.90;;;;;;4992064;28;20117;-71
2022/10/27 07:24:15;;;;;;;3.88;1.73;;;12.70;99.90;;;;;;4989603;28;20558;-71
2022/10/27 07:26:41;;;;;;;6.88;2.25;;;12.70;99.90;;;;;;4996171;28;20037;-71
2022/10/27 07:29:06;;;;;;;4.53;2.10;;;12.90;99.90;;;;;;4990022;28;20088;-71
2022/10/27 07:31:32;;;;;;;7.80;2.17;;;12.90;99.90;;;;;;4991607;28;20403;-70
2022/10/27 07:33:58;;;;;;;4.70;2.30;;;12.90;99.90;;;;;;4995350;28;20096;-71
2022/10/27 07:36:23;;;;;;;4.55;1.98;;;12.80;99.90;;;;;;4989184;28;20049;-70
2022/10/27 07:38:49;;;;;;;4.35;2.03;;;12.70;99.90;;;;;;4989898;28;20038;-70
2022/10/27 07:41:15;;;;;;;8.77;2.72;;;12.70;99.90;;;;;;4995312;28;20030;-71
2022/10/27 07:43:40;;;;;;;4.28;1.90;;;12.80;99.90;;;;;;4987054;28;20343;-72
2022/10/27 07:46:06;;;;;;;5.38;2.25;;;12.90;99.90;;;;;;4991377;28;20065;-71
2022/10/27 07:48:31;;;;;;;7.82;2.30;;;13.00;99.90;;;;;;4994288;28;20124;-71
2022/10/27 07:50:57;;;;;;;7.90;2.10;;;13.00;99.90;;;;;;4990326;28;20428;-72
2022/10/27 07:53:23;;;;;;;12.90;2.65;;;13.00;99.90;;;;;;4988998;28;20646;-71
2022/10/27 07:55:51;;;;;;;5.82;2.80;;;12.90;99.90;;;;;;4982402;28;20080;-71
2022/10/27 07:58:16;;;;;;;7.25;2.15;;;12.90;99.90;;;;;;4989535;28;20097;-71
2022/10/27 08:00:47;;;;;;;9.35;2.08;;;12.90;99.90;;;;;;4990636;28;20026;-71
2022/10/27 08:03:15;;;;;;;4.65;1.95;;;12.90;99.90;;;;;;4990573;28;20152;-71
2022/10/27 08:05:41;;;;;;;5.57;2.20;;;12.80;99.90;;;;;;4989618;28;20034;-70
2022/10/27 08:08:07;;;;;;;7.30;1.60;;;12.80;99.90;;;;;;4986851;28;20024;-74
2022/10/27 08:10:36;;;;;;;8.63;2.70;;;12.70;99.90;;;;;;4990989;28;20047;-73
2022/10/27 08:13:02;;;;;;;4.25;1.88;;;12.80;99.90;;;;;;4986685;28;20031;-74
2022/10/27 08:15:28;;;;;;;5.47;2.40;;;12.90;99.90;;;;;;4988162;28;20046;-73
2022/10/27 08:17:56;;;;;;;6.78;1.95;;;12.90;99.90;;;;;;4991687;28;20057;-70
2022/10/27 08:20:23;;;;;;;7.55;2.10;;;12.90;99.90;;;;;;4988633;28;20030;-71
2022/10/27 08:22:56;;;;;;;8.88;2.42;;;13.00;99.90;;;;;;4986683;28;20040;-70
2022/10/27 08:25:22;;;;;;;5.35;2.15;;;12.90;99.90;;;;;;4985957;28;20030;-71
2022/10/27 08:27:48;;;;;;;8.13;2.28;;;12.80;99.90;;;;;;4990280;28;20064;-71
2022/10/27 08:30:14;;;;;;;11.25;3.38;;;12.90;99.90;;;;;;4988011;28;20481;-71
2022/10/27 08:32:39;;;;;;;8.70;2.28;;;12.90;99.90;;;;;;4988254;28;20504;-70
2022/10/27 08:35:05;;;;;;;7.28;2.03;;;12.90;99.90;;;;;;4989343;28;20107;-70
2022/10/27 08:37:31;;;;;;;6.82;2.42;;;12.80;99.90;;;;;;4989066;28;20040;-70
2022/10/27 08:39:57;;;;;;;4.68;1.80;;;12.90;99.90;;;;;;4992250;28;20031;-70
2022/10/27 08:42:49;;;;;;;6.68;2.08;;;13.00;99.90;;;;;;4988297;28;20567;-70
2022/10/27 08:45:20;;;;;;;6.80;1.92;;;13.10;99.90;;;;;;4989587;28;20026;-70
2022/10/27 08:47:46;;;;;;;7.10;2.10;;;13.20;99.90;;;;;;4989087;28;20560;-70
2022/10/27 08:50:25;;;;;;;6.38;2.05;;;13.20;99.90;;;;;;4990550;28;20029;-70
2022/10/27 08:52:53;;;;;;;6.15;1.98;;;13.40;99.90;;;;;;4992991;28;20037;-70
2022/10/27 08:55:19;;;;;;;8.15;1.95;;;13.40;99.90;;;;;;4992898;28;20030;-70
2022/10/27 08:58:12;;;;;;;5.40;2.15;;;13.50;99.90;;;;;;4997972;28;20391;-71
2022/10/27 09:01:09;;;;;;;6.30;2.92;;;13.50;99.90;;;;;;4995371;28;20611;-71
2022/10/27 09:03:43;;;;;;;6.07;1.90;;;13.50;99.90;;;;;;4994361;28;20041;-71
2022/10/27 09:06:15;;;;;;;6.40;1.92;;;13.70;99.90;;;;;;4995137;28;20022;-71
2022/10/27 09:08:59;;;;;;;4.78;2.35;;;13.80;99.90;;;;;;4995306;28;20619;-71
2022/10/27 09:11:31;;;;;;;5.82;2.30;;;13.70;99.90;;;;;;4994094;28;20049;-71
2022/10/27 09:14:17;;;;;;;7.63;2.35;;;13.70;99.90;;;;;;4995737;28;20507;-70
2022/10/27 09:16:58;;;;;;;5.25;2.30;;;13.60;99.90;;;;;;4995614;28;20594;-71
2022/10/27 09:19:39;;;;;;;7.13;2.42;;;13.70;99.90;;;;;;5000547;28;20048;-71
2022/10/27 09:22:11;;;;;;;5.70;2.97;;;13.80;99.90;;;;;;4995075;28;20041;-71
2022/10/27 09:24:37;;;;;;;5.35;2.15;;;13.90;99.90;;;;;;4997302;28;20037;-71
2022/10/27 09:27:04;;;;;;;10.02;2.40;;;13.80;99.90;;;;;;4997667;28;20033;-71
2022/10/27 09:29:34;;;;;;;4.97;2.10;;;13.80;99.90;;;;;;4995274;28;20488;-71
2022/10/27 09:32:14;;;;;;;6.50;2.05;;;13.90;99.90;;;;;;4998909;28;20046;-71
2022/10/27 09:34:52;;;;;;;5.13;2.05;;;13.90;99.90;;;;;;4994745;28;20037;-71
2022/10/27 09:37:19;;;;;;;5.45;2.03;;;14.00;99.90;;;;;;5001532;28;20046;-71
2022/10/27 09:39:47;;;;;;;7.72;2.50;;;14.00;99.90;;;;;;4987468;28;20034;-71
2022/10/27 09:42:14;;;;;;;6.18;2.17;;;14.10;99.90;;;;;;4999193;28;20069;-71
2022/10/27 09:44:45;;;;;;;7.07;2.70;;;14.10;99.90;;;;;;4987632;28;20606;-71
2022/10/27 09:47:11;;;;;;;5.75;2.28;;;14.20;99.90;;;;;;4987666;28;20364;-70
2022/10/27 09:49:42;;;;;;;7.72;2.45;;;14.30;99.90;;;;;;4994756;28;20030;-70
2022/10/27 09:52:11;;;;;;;6.70;2.35;;;14.40;99.90;;;;;;4995117;28;20034;-70
2022/10/27 09:54:41;;;;;;;8.77;1.75;;;14.40;99.90;;;;;;4986278;28;20030;-70
2022/10/27 09:57:18;;;;;;;13.45;2.65;;;14.50;99.90;;;;;;4994483;28;20495;-70
2022/10/27 10:00:16;;;;;;;10.07;2.95;;;14.60;99.90;;;;;;4992753;28;20076;-70
2022/10/27 10:03:01;;;;;;;9.27;2.10;;;14.70;99.90;;;;;;4995686;28;20120;-70
2022/10/27 10:05:35;;;;;;;7.45;3.05;;;14.80;99.90;;;;;;4993797;28;20091;-70
2022/10/27 10:08:24;;;;;;;4.50;2.03;;;14.80;99.90;;;;;;4999478;28;20045;-71
2022/10/27 10:10:56;;;;;;;7.05;2.30;;;14.80;99.90;;;;;;4996177;28;20034;-71
2022/10/27 10:13:22;;;;;;;6.78;2.47;;;15.00;99.90;;;;;;4992707;28;20022;-71
2022/10/27 10:16:03;;;;;;;5.70;2.50;;;15.10;99.90;;;;;;4992488;28;20042;-70
2022/10/27 10:18:30;;;;;;;8.13;2.05;;;15.20;99.90;;;;;;4990149;28;20042;-70
2022/10/27 10:20:59;;;;;;;6.13;2.67;;;15.40;99.90;;;;;;4991453;28;20545;-70
2022/10/27 10:23:29;;;;;;;6.38;2.35;;;15.60;99.90;;;;;;4995163;28;20833;-70
2022/10/27 10:25:59;;;;;;;5.45;2.20;;;15.60;99.90;;;;;;4993765;28;20068;-70
2022/10/27 10:28:39;;;;;;;9.18;3.10;;;15.50;99.90;;;;;;4993553;28;20105;-70
2022/10/27 10:31:20;;;;;;;8.93;2.30;;;15.60;99.90;;;;;;4992872;28;20030;-70
2022/10/27 10:33:46;;;;;;;6.90;2.00;;;15.60;99.90;;;;;;4997069;28;20057;-70
2022/10/27 10:36:33;;;;;;;5.22;2.15;;;15.60;99.90;;;;;;4995061;28;20026;-71
2022/10/27 10:39:00;;;;;;;7.32;2.13;;;15.50;99.90;;;;;;4995109;28;21161;-71
2022/10/27 10:41:27;;;;;;;5.97;1.90;;;15.50;99.90;;;;;;4997510;28;20034;-70
2022/10/27 10:44:28;;;;;;;7.82;3.10;;;15.60;99.90;;;;;;4993644;28;20054;-70
2022/10/27 10:46:56;;;;;;;8.27;2.35;;;15.70;99.90;;;;;;4984987;28;20065;-70
2022/10/27 10:49:31;;;;;;;8.55;2.53;;;16.00;99.90;;;;;;4992299;28;20477;-70
2022/10/27 10:52:00;;;;;;;7.40;2.45;;;16.00;99.90;;;;;;4992994;28;20029;-71
2022/10/27 10:54:35;;;;;;;5.63;2.15;;;15.90;99.90;;;;;;4999809;28;20520;-70
2022/10/27 10:57:02;;;;;;;6.78;2.00;;;16.10;99.90;;;;;;4994060;28;20453;-71
2022/10/27 10:59:30;;;;;;;5.53;2.28;;;16.10;99.90;;;;;;4995978;28;20041;-71
2022/10/27 11:02:04;;;;;;;6.55;2.13;;;16.10;99.90;;;;;;4991238;28;20049;-70
2022/10/27 11:04:43;;;;;;;4.43;2.17;;;16.20;99.90;;;;;;4993455;28;20033;-71
2022/10/27 11:07:24;;;;;;;5.20;2.33;;;16.30;99.90;;;;;;4994260;28;20112;-71
2022/10/27 11:09:58;;;;;;;6.43;2.28;;;16.30;99.90;;;;;;4994197;28;20739;-70
2022/10/27 11:12:45;;;;;;;6.75;1.90;;;16.60;99.90;;;;;;5003955;28;20032;-71
2022/10/27 11:15:35;;;;;;;7.28;2.85;;;16.60;99.90;;;;;;4996906;28;20026;-71
2022/10/27 11:18:11;;;;;;;7.65;2.97;;;16.80;99.90;;;;;;5001205;28;20049;-71
2022/10/27 11:20:37;;;;;;;8.30;2.28;;;16.90;99.90;;;;;;4993225;28;20036;-71
2022/10/27 11:23:13;;;;;;;8.05;2.38;;;17.00;99.90;;;;;;4991804;28;20038;-70
2022/10/27 11:25:38;;;;;;;6.28;2.28;;;17.10;99.90;;;;;;4991187;28;20110;-71
2022/10/27 11:28:23;;;;;;;6.82;1.98;;;17.10;99.90;;;;;;4993668;28;20108;-71
2022/10/27 11:31:06;;;;;;;6.97;2.58;;;17.10;99.90;;;;;;4998799;28;20100;-70
2022/10/27 11:34:04;;;;;;;5.72;2.45;;;17.20;99.90;;;;;;4995122;28;20037;-71
2022/10/27 11:36:44;;;;;;;7.75;2.10;;;17.30;99.90;;;;;;4984588;28;20125;-71
2022/10/27 11:39:17;;;;;;;15.80;2.78;;;17.10;99.90;;;;;;4995712;28;20038;-71
2022/10/27 11:41:48;;;;;;;5.40;1.60;;;17.50;99.90;;;;;;4989076;28;20038;-71
2022/10/27 11:44:28;;;;;;;7.18;1.83;;;17.80;99.90;;;;;;4996879;28;20030;-71
2022/10/27 11:47:12;;;;;;;7.03;2.55;;;18.00;99.90;;;;;;4996896;28;20040;-71
2022/10/27 11:50:07;;;;;;;5.90;1.90;;;17.90;99.90;;;;;;4996235;28;20181;-71
2022/10/27 11:52:45;;;;;;;4.78;1.60;;;18.00;99.90;;;;;;5001155;28;20085;-71
2022/10/27 11:55:21;;;;;;;5.00;2.03;;;18.00;99.90;;;;;;4990995;28;20030;-70
2022/10/27 11:57:50;;;;;;;5.78;1.83;;;17.90;99.90;;;;;;4992342;28;20041;-70
2022/10/27 12:00:24;;;;;;;6.57;1.95;;;17.80;99.90;;;;;;4992383;28;20596;-71
2022/10/27 12:03:15;;;;;;;3.78;1.70;;;17.80;99.90;;;;;;4995000;28;20030;-71
2022/10/27 12:06:19;;;;;;;6.28;1.90;;;17.90;99.90;;;;;;4996286;28;20023;-71
2022/10/27 12:09:11;;;;;;;8.07;2.03;;;18.20;99.90;;;;;;4997485;28;20058;-71
2022/10/27 12:11:55;;;;;;;4.45;1.80;;;18.00;99.90;;;;;;4997838;28;20384;-71
2022/10/27 12:14:36;;;;;;;5.53;2.25;;;18.10;99.90;;;;;;4996209;28;20077;-71
2022/10/27 12:17:31;;;;;;;7.70;1.90;;;18.20;99.90;;;;;;4994417;28;20072;-71
2022/10/27 12:19:59;;;;;;;3.53;2.10;;;18.40;99.90;;;;;;4996671;28;20112;-71
2022/10/27 12:22:50;;;;;;;7.10;2.00;;;18.40;99.90;;;;;;4995442;28;20038;-71
2022/10/27 12:25:26;;;;;;;8.88;1.88;;;18.50;99.90;;;;;;5000617;28;20028;-72
2022/10/27 12:27:57;;;;;;;3.60;1.55;;;18.50;99.60;;;;;;4995942;28;20026;-71
2022/10/27 12:30:24;;;;;;;7.57;2.30;;;18.50;99.90;;;;;;5002522;28;20030;-71
2022/10/27 12:33:13;;;;;;;7.70;2.30;;;18.50;99.90;;;;;;4996002;28;20058;-71
2022/10/27 12:35:47;;;;;;;5.05;1.67;;;18.50;99.90;;;;;;4999050;28;20092;-72
2022/10/27 12:38:23;;;;;;;5.15;1.50;;;18.50;99.90;;;;;;4996155;28;20046;-71
2022/10/27 12:41:14;;;;;;;6.25;1.60;;;18.50;99.40;;;;;;4993134;28;20096;-71
2022/10/27 12:43:45;;;;;;;7.65;2.63;;;18.60;99.80;;;;;;4998812;28;20417;-71
2022/10/27 12:46:36;;;;;;;4.57;2.30;;;18.60;99.90;;;;;;4991405;28;20042;-71
2022/10/27 12:49:42;;;;;;;4.85;2.30;;;18.80;99.90;;;;;;4989920;28;20034;-71
2022/10/27 12:52:16;;;;;;;4.18;1.60;;;18.90;99.90;;;;;;4981132;28;20662;-71
2022/10/27 12:54:51;;;;;;;6.25;1.73;;;18.90;99.90;;;;;;4979577;28;20035;-71
2022/10/27 12:57:54;;;;;;;3.80;1.70;;;18.80;99.90;;;;;;4992558;28;20042;-71
2022/10/27 13:00:22;;;;;;;6.50;2.22;;;18.50;99.10;;;;;;4996938;28;20095;-71
2022/10/27 13:03:36;;;;;;;6.47;2.58;;;18.50;99.90;;;;;;4997031;28;20447;-71
2022/10/27 13:06:25;;;;;;;4.05;1.70;;;18.70;99.90;;;;;;4985541;28;20058;-71